sensor_id;sensor_type;location;lat;lon;timestamp;P1;durP1;ratioP1;P2;durP2;ratioP2
70169;SDS011;57543;45.442;9.212;2022-07-05T00:01:05;5.22;;;2.08;;
70169;SDS011;57543;45.442;9.212;2022-07-05T00:04:09;7.00;;;2.27;;
70169;SDS011;57543;45.442;9.212;2022-07-05T00:07:13;5.13;;;2.30;;
70169;SDS011;57543;45.442;9.212;2022-07-05T00:10:23;4.85;;;1.80;;
70169;SDS011;57543;45.442;9.212;2022-07-05T00:13:27;4.00;;;1.85;;
70169;SDS011;57543;45.442;9.212;2022-07-05T00:16:31;5.43;;;2.22;;
70169;SDS011;57543;45.442;9.212;2022-07-05T00:19:34;5.77;;;2.40;;
70169;SDS011;57543;45.442;9.212;2022-07-05T00:22:38;4.93;;;2.00;;
70169;SDS011;57543;45.442;9.212;2022-07-05T00:25:42;5.65;;;1.90;;
70169;SDS011;57543;45.442;9.212;2022-07-05T00:28:46;4.88;;;2.20;;
70169;SDS011;57543;45.442;9.212;2022-07-05T00:31:50;4.35;;;2.00;;
70169;SDS011;57543;45.442;9.212;2022-07-05T00:34:54;6.00;;;2.00;;
70169;SDS011;57543;45.442;9.212;2022-07-05T00:37:57;5.25;;;1.85;;
70169;SDS011;57543;45.442;9.212;2022-07-05T00:41:01;6.53;;;2.03;;
70169;SDS011;57543;45.442;9.212;2022-07-05T00:44:06;4.53;;;1.85;;
70169;SDS011;57543;45.442;9.212;2022-07-05T00:47:11;6.45;;;2.10;;
70169;SDS011;57543;45.442;9.212;2022-07-05T00:50:15;4.63;;;2.10;;
70169;SDS011;57543;45.442;9.212;2022-07-05T00:53:19;5.95;;;2.05;;
70169;SDS011;57543;45.442;9.212;2022-07-05T00:56:24;6.05;;;2.20;;
70169;SDS011;57543;45.442;9.212;2022-07-05T00:59:28;7.20;;;2.35;;
70169;SDS011;57543;45.442;9.212;2022-07-05T01:02:33;4.70;;;2.08;;
70169;SDS011;57543;45.442;9.212;2022-07-05T01:05:37;5.93;;;2.27;;
70169;SDS011;57543;45.442;9.212;2022-07-05T01:08:41;4.45;;;2.00;;
70169;SDS011;57543;45.442;9.212;2022-07-05T01:11:47;7.65;;;2.45;;
70169;SDS011;57543;45.442;9.212;2022-07-05T01:14:52;6.55;;;2.38;;
70169;SDS011;57543;45.442;9.212;2022-07-05T01:17:56;6.20;;;2.67;;
70169;SDS011;57543;45.442;9.212;2022-07-05T01:21:01;5.23;;;3.00;;
70169;SDS011;57543;45.442;9.212;2022-07-05T01:24:12;7.45;;;2.80;;
70169;SDS011;57543;45.442;9.212;2022-07-05T01:27:20;5.75;;;3.00;;
70169;SDS011;57543;45.442;9.212;2022-07-05T01:30:25;9.02;;;3.30;;
70169;SDS011;57543;45.442;9.212;2022-07-05T01:33:29;10.82;;;3.33;;
70169;SDS011;57543;45.442;9.212;2022-07-05T01:36:34;9.17;;;3.30;;
70169;SDS011;57543;45.442;9.212;2022-07-05T01:39:38;6.45;;;3.10;;
70169;SDS011;57543;45.442;9.212;2022-07-05T01:42:42;6.45;;;3.28;;
70169;SDS011;57543;45.442;9.212;2022-07-05T01:45:46;7.90;;;3.20;;
70169;SDS011;57543;45.442;9.212;2022-07-05T01:48:51;7.50;;;3.00;;
70169;SDS011;57543;45.442;9.212;2022-07-05T01:52:02;7.77;;;3.20;;
70169;SDS011;57543;45.442;9.212;2022-07-05T01:55:11;6.85;;;3.47;;
70169;SDS011;57543;45.442;9.212;2022-07-05T01:58:16;6.32;;;3.00;;
70169;SDS011;57543;45.442;9.212;2022-07-05T02:01:33;7.88;;;3.00;;
70169;SDS011;57543;45.442;9.212;2022-07-05T02:04:37;8.40;;;3.30;;
70169;SDS011;57543;45.442;9.212;2022-07-05T02:07:46;7.77;;;3.07;;
70169;SDS011;57543;45.442;9.212;2022-07-05T02:10:50;5.22;;;3.20;;
70169;SDS011;57543;45.442;9.212;2022-07-05T02:13:54;6.57;;;3.33;;
70169;SDS011;57543;45.442;9.212;2022-07-05T02:16:59;5.25;;;2.70;;
70169;SDS011;57543;45.442;9.212;2022-07-05T02:20:04;5.53;;;3.00;;
70169;SDS011;57543;45.442;9.212;2022-07-05T02:23:09;4.93;;;2.50;;
70169;SDS011;57543;45.442;9.212;2022-07-05T02:26:15;4.82;;;2.42;;
70169;SDS011;57543;45.442;9.212;2022-07-05T02:29:20;7.03;;;2.55;;
70169;SDS011;57543;45.442;9.212;2022-07-05T02:32:25;7.00;;;2.30;;
70169;SDS011;57543;45.442;9.212;2022-07-05T02:35:30;6.75;;;2.90;;
70169;SDS011;57543;45.442;9.212;2022-07-05T02:38:34;5.57;;;2.67;;
70169;SDS011;57543;45.442;9.212;2022-07-05T02:41:38;5.97;;;2.95;;
70169;SDS011;57543;45.442;9.212;2022-07-05T02:44:42;7.25;;;3.00;;
70169;SDS011;57543;45.442;9.212;2022-07-05T02:47:47;6.68;;;2.53;;
70169;SDS011;57543;45.442;9.212;2022-07-05T02:50:52;6.18;;;3.08;;
70169;SDS011;57543;45.442;9.212;2022-07-05T02:53:56;6.60;;;2.87;;
70169;SDS011;57543;45.442;9.212;2022-07-05T02:57:00;6.35;;;2.85;;
70169;SDS011;57543;45.442;9.212;2022-07-05T03:00:05;8.18;;;2.90;;
70169;SDS011;57543;45.442;9.212;2022-07-05T03:03:16;5.88;;;3.00;;
70169;SDS011;57543;45.442;9.212;2022-07-05T03:06:20;7.88;;;3.30;;
70169;SDS011;57543;45.442;9.212;2022-07-05T03:09:24;7.07;;;2.93;;
70169;SDS011;57543;45.442;9.212;2022-07-05T03:12:28;5.00;;;2.97;;
70169;SDS011;57543;45.442;9.212;2022-07-05T03:15:33;7.55;;;3.42;;
70169;SDS011;57543;45.442;9.212;2022-07-05T03:18:38;6.82;;;3.22;;
70169;SDS011;57543;45.442;9.212;2022-07-05T03:21:44;6.97;;;3.08;;
70169;SDS011;57543;45.442;9.212;2022-07-05T03:24:48;5.80;;;3.23;;
70169;SDS011;57543;45.442;9.212;2022-07-05T03:27:53;4.75;;;2.80;;
70169;SDS011;57543;45.442;9.212;2022-07-05T03:30:57;7.93;;;3.40;;
70169;SDS011;57543;45.442;9.212;2022-07-05T03:34:02;8.20;;;3.60;;
70169;SDS011;57543;45.442;9.212;2022-07-05T03:37:07;6.05;;;3.65;;
70169;SDS011;57543;45.442;9.212;2022-07-05T03:40:11;6.93;;;3.37;;
70169;SDS011;57543;45.442;9.212;2022-07-05T03:43:16;5.85;;;3.20;;
70169;SDS011;57543;45.442;9.212;2022-07-05T03:46:20;9.98;;;3.85;;
70169;SDS011;57543;45.442;9.212;2022-07-05T03:49:23;7.97;;;3.55;;
70169;SDS011;57543;45.442;9.212;2022-07-05T03:52:27;8.13;;;3.53;;
70169;SDS011;57543;45.442;9.212;2022-07-05T03:55:34;7.03;;;4.03;;
70169;SDS011;57543;45.442;9.212;2022-07-05T03:58:38;6.57;;;3.20;;
70169;SDS011;57543;45.442;9.212;2022-07-05T04:01:43;7.00;;;3.60;;
70169;SDS011;57543;45.442;9.212;2022-07-05T04:04:48;5.97;;;3.38;;
70169;SDS011;57543;45.442;9.212;2022-07-05T04:07:53;6.40;;;3.55;;
70169;SDS011;57543;45.442;9.212;2022-07-05T04:11:03;6.30;;;3.50;;
70169;SDS011;57543;45.442;9.212;2022-07-05T04:14:09;6.90;;;3.63;;
70169;SDS011;57543;45.442;9.212;2022-07-05T04:17:14;7.25;;;3.65;;
70169;SDS011;57543;45.442;9.212;2022-07-05T04:20:18;6.93;;;3.83;;
70169;SDS011;57543;45.442;9.212;2022-07-05T04:23:24;6.40;;;4.00;;
70169;SDS011;57543;45.442;9.212;2022-07-05T04:26:28;6.60;;;3.70;;
70169;SDS011;57543;45.442;9.212;2022-07-05T04:29:32;10.43;;;3.75;;
70169;SDS011;57543;45.442;9.212;2022-07-05T04:32:36;6.40;;;3.88;;
70169;SDS011;57543;45.442;9.212;2022-07-05T04:35:41;7.72;;;4.22;;
70169;SDS011;57543;45.442;9.212;2022-07-05T04:38:45;7.15;;;4.03;;
70169;SDS011;57543;45.442;9.212;2022-07-05T04:41:50;6.73;;;3.97;;
70169;SDS011;57543;45.442;9.212;2022-07-05T04:44:54;12.40;;;4.47;;
70169;SDS011;57543;45.442;9.212;2022-07-05T04:47:58;7.82;;;3.88;;
70169;SDS011;57543;45.442;9.212;2022-07-05T04:51:02;8.95;;;4.30;;
70169;SDS011;57543;45.442;9.212;2022-07-05T04:54:08;7.45;;;3.92;;
70169;SDS011;57543;45.442;9.212;2022-07-05T04:57:12;7.03;;;3.70;;
70169;SDS011;57543;45.442;9.212;2022-07-05T05:00:16;8.35;;;3.95;;
70169;SDS011;57543;45.442;9.212;2022-07-05T05:03:20;8.45;;;4.40;;
70169;SDS011;57543;45.442;9.212;2022-07-05T05:06:24;8.43;;;4.22;;
70169;SDS011;57543;45.442;9.212;2022-07-05T05:09:28;8.55;;;4.30;;
70169;SDS011;57543;45.442;9.212;2022-07-05T05:12:32;9.67;;;4.00;;
70169;SDS011;57543;45.442;9.212;2022-07-05T05:15:36;6.22;;;3.53;;
70169;SDS011;57543;45.442;9.212;2022-07-05T05:18:39;7.28;;;3.63;;
70169;SDS011;57543;45.442;9.212;2022-07-05T05:21:43;6.20;;;3.70;;
70169;SDS011;57543;45.442;9.212;2022-07-05T05:24:47;7.70;;;3.70;;
70169;SDS011;57543;45.442;9.212;2022-07-05T05:27:51;6.50;;;3.60;;
70169;SDS011;57543;45.442;9.212;2022-07-05T05:30:55;7.65;;;3.33;;
70169;SDS011;57543;45.442;9.212;2022-07-05T05:33:58;6.95;;;3.30;;
70169;SDS011;57543;45.442;9.212;2022-07-05T05:37:02;8.75;;;3.35;;
70169;SDS011;57543;45.442;9.212;2022-07-05T05:40:06;6.68;;;3.55;;
70169;SDS011;57543;45.442;9.212;2022-07-05T05:43:10;6.30;;;3.50;;
70169;SDS011;57543;45.442;9.212;2022-07-05T05:46:14;5.57;;;3.20;;
70169;SDS011;57543;45.442;9.212;2022-07-05T05:49:18;5.78;;;3.30;;
70169;SDS011;57543;45.442;9.212;2022-07-05T05:52:22;6.45;;;3.17;;
70169;SDS011;57543;45.442;9.212;2022-07-05T05:55:26;7.35;;;3.40;;
70169;SDS011;57543;45.442;9.212;2022-07-05T05:58:30;6.47;;;2.83;;
70169;SDS011;57543;45.442;9.212;2022-07-05T06:01:35;5.90;;;2.60;;
70169;SDS011;57543;45.442;9.212;2022-07-05T06:04:38;7.25;;;2.92;;
70169;SDS011;57543;45.442;9.212;2022-07-05T06:07:45;5.65;;;3.10;;
70169;SDS011;57543;45.442;9.212;2022-07-05T06:10:52;5.70;;;3.03;;
70169;SDS011;57543;45.442;9.212;2022-07-05T06:13:56;6.70;;;2.87;;
70169;SDS011;57543;45.442;9.212;2022-07-05T06:17:00;5.60;;;2.70;;
70169;SDS011;57543;45.442;9.212;2022-07-05T06:20:07;5.75;;;2.80;;
70169;SDS011;57543;45.442;9.212;2022-07-05T06:23:12;6.40;;;3.33;;
70169;SDS011;57543;45.442;9.212;2022-07-05T06:26:16;6.38;;;3.05;;
70169;SDS011;57543;45.442;9.212;2022-07-05T06:29:20;5.03;;;2.80;;
70169;SDS011;57543;45.442;9.212;2022-07-05T06:32:24;7.00;;;3.13;;
70169;SDS011;57543;45.442;9.212;2022-07-05T06:35:28;5.65;;;2.78;;
70169;SDS011;57543;45.442;9.212;2022-07-05T06:38:32;9.77;;;3.20;;
70169;SDS011;57543;45.442;9.212;2022-07-05T06:41:36;7.32;;;2.70;;
70169;SDS011;57543;45.442;9.212;2022-07-05T06:44:40;4.87;;;2.50;;
70169;SDS011;57543;45.442;9.212;2022-07-05T06:47:44;5.05;;;2.50;;
70169;SDS011;57543;45.442;9.212;2022-07-05T06:50:49;5.28;;;2.35;;
70169;SDS011;57543;45.442;9.212;2022-07-05T06:53:53;6.20;;;2.30;;
70169;SDS011;57543;45.442;9.212;2022-07-05T06:56:56;8.93;;;2.92;;
70169;SDS011;57543;45.442;9.212;2022-07-05T07:00:00;6.50;;;2.83;;
70169;SDS011;57543;45.442;9.212;2022-07-05T07:03:05;13.88;;;3.33;;
70169;SDS011;57543;45.442;9.212;2022-07-05T07:06:09;7.40;;;3.58;;
70169;SDS011;57543;45.442;9.212;2022-07-05T07:09:13;4.78;;;2.78;;
70169;SDS011;57543;45.442;9.212;2022-07-05T07:12:24;7.15;;;3.28;;
70169;SDS011;57543;45.442;9.212;2022-07-05T07:15:28;9.17;;;3.70;;
70169;SDS011;57543;45.442;9.212;2022-07-05T07:18:32;8.85;;;3.05;;
70169;SDS011;57543;45.442;9.212;2022-07-05T07:21:37;6.57;;;3.13;;
70169;SDS011;57543;45.442;9.212;2022-07-05T07:24:41;7.85;;;3.38;;
70169;SDS011;57543;45.442;9.212;2022-07-05T07:27:46;8.52;;;3.20;;
70169;SDS011;57543;45.442;9.212;2022-07-05T07:30:53;6.50;;;3.10;;
70169;SDS011;57543;45.442;9.212;2022-07-05T07:33:57;6.90;;;3.30;;
70169;SDS011;57543;45.442;9.212;2022-07-05T07:37:01;6.57;;;2.97;;
70169;SDS011;57543;45.442;9.212;2022-07-05T07:40:07;7.38;;;2.97;;
70169;SDS011;57543;45.442;9.212;2022-07-05T07:43:11;8.13;;;2.75;;
70169;SDS011;57543;45.442;9.212;2022-07-05T07:46:15;6.30;;;3.00;;
70169;SDS011;57543;45.442;9.212;2022-07-05T07:49:19;8.60;;;3.50;;
70169;SDS011;57543;45.442;9.212;2022-07-05T07:52:23;7.28;;;3.55;;
70169;SDS011;57543;45.442;9.212;2022-07-05T07:55:27;6.90;;;3.22;;
70169;SDS011;57543;45.442;9.212;2022-07-05T07:58:32;6.25;;;2.80;;
70169;SDS011;57543;45.442;9.212;2022-07-05T08:01:39;6.90;;;3.27;;
70169;SDS011;57543;45.442;9.212;2022-07-05T08:04:43;7.25;;;3.20;;
70169;SDS011;57543;45.442;9.212;2022-07-05T08:07:47;8.88;;;3.63;;
70169;SDS011;57543;45.442;9.212;2022-07-05T08:10:51;6.18;;;3.60;;
70169;SDS011;57543;45.442;9.212;2022-07-05T08:13:54;8.63;;;3.25;;
70169;SDS011;57543;45.442;9.212;2022-07-05T08:16:59;9.40;;;3.50;;
70169;SDS011;57543;45.442;9.212;2022-07-05T08:20:03;5.90;;;3.17;;
70169;SDS011;57543;45.442;9.212;2022-07-05T08:23:25;7.53;;;3.55;;
70169;SDS011;57543;45.442;9.212;2022-07-05T08:26:29;5.05;;;2.90;;
70169;SDS011;57543;45.442;9.212;2022-07-05T08:29:34;7.43;;;3.40;;
70169;SDS011;57543;45.442;9.212;2022-07-05T08:32:38;16.83;;;4.47;;
70169;SDS011;57543;45.442;9.212;2022-07-05T08:35:42;12.50;;;3.67;;
70169;SDS011;57543;45.442;9.212;2022-07-05T08:38:45;10.48;;;3.85;;
70169;SDS011;57543;45.442;9.212;2022-07-05T08:41:49;7.07;;;3.30;;
70169;SDS011;57543;45.442;9.212;2022-07-05T08:44:53;8.50;;;3.65;;
70169;SDS011;57543;45.442;9.212;2022-07-05T08:47:58;12.67;;;4.00;;
70169;SDS011;57543;45.442;9.212;2022-07-05T08:51:03;12.27;;;3.67;;
70169;SDS011;57543;45.442;9.212;2022-07-05T08:54:11;8.70;;;3.47;;
70169;SDS011;57543;45.442;9.212;2022-07-05T08:57:15;7.43;;;3.40;;
70169;SDS011;57543;45.442;9.212;2022-07-05T09:00:19;7.18;;;3.22;;
70169;SDS011;57543;45.442;9.212;2022-07-05T09:03:24;14.20;;;3.90;;
70169;SDS011;57543;45.442;9.212;2022-07-05T09:06:36;11.13;;;4.43;;
70169;SDS011;57543;45.442;9.212;2022-07-05T09:09:42;43.42;;;6.10;;
70169;SDS011;57543;45.442;9.212;2022-07-05T09:12:47;11.40;;;4.20;;
70169;SDS011;57543;45.442;9.212;2022-07-05T09:15:51;6.88;;;3.90;;
70169;SDS011;57543;45.442;9.212;2022-07-05T09:19:04;9.90;;;4.00;;
70169;SDS011;57543;45.442;9.212;2022-07-05T09:22:09;10.20;;;4.90;;
70169;SDS011;57543;45.442;9.212;2022-07-05T09:25:18;7.30;;;3.50;;
70169;SDS011;57543;45.442;9.212;2022-07-05T09:28:26;7.65;;;4.10;;
70169;SDS011;57543;45.442;9.212;2022-07-05T09:31:31;7.70;;;4.10;;
70169;SDS011;57543;45.442;9.212;2022-07-05T09:34:36;9.07;;;4.03;;
70169;SDS011;57543;45.442;9.212;2022-07-05T09:37:43;6.15;;;3.97;;
70169;SDS011;57543;45.442;9.212;2022-07-05T09:40:54;7.68;;;3.80;;
70169;SDS011;57543;45.442;9.212;2022-07-05T09:43:59;5.97;;;3.80;;
70169;SDS011;57543;45.442;9.212;2022-07-05T09:47:07;8.15;;;3.80;;
70169;SDS011;57543;45.442;9.212;2022-07-05T09:50:32;8.23;;;3.50;;
70169;SDS011;57543;45.442;9.212;2022-07-05T09:53:43;6.82;;;4.00;;
70169;SDS011;57543;45.442;9.212;2022-07-05T09:56:48;6.43;;;3.78;;
70169;SDS011;57543;45.442;9.212;2022-07-05T09:59:58;6.80;;;3.90;;
70169;SDS011;57543;45.442;9.212;2022-07-05T10:03:09;8.20;;;3.90;;
70169;SDS011;57543;45.442;9.212;2022-07-05T10:06:13;7.80;;;4.17;;
70169;SDS011;57543;45.442;9.212;2022-07-05T10:09:17;7.03;;;4.22;;
70169;SDS011;57543;45.442;9.212;2022-07-05T10:12:22;6.75;;;3.90;;
70169;SDS011;57543;45.442;9.212;2022-07-05T10:15:36;6.57;;;4.10;;
70169;SDS011;57543;45.442;9.212;2022-07-05T10:18:40;7.10;;;3.83;;
70169;SDS011;57543;45.442;9.212;2022-07-05T10:21:44;8.70;;;4.50;;
70169;SDS011;57543;45.442;9.212;2022-07-05T10:24:48;6.97;;;4.03;;
70169;SDS011;57543;45.442;9.212;2022-07-05T10:27:52;7.68;;;4.40;;
70169;SDS011;57543;45.442;9.212;2022-07-05T10:30:57;9.13;;;4.50;;
70169;SDS011;57543;45.442;9.212;2022-07-05T10:34:03;7.95;;;4.43;;
70169;SDS011;57543;45.442;9.212;2022-07-05T10:37:10;6.20;;;4.30;;
70169;SDS011;57543;45.442;9.212;2022-07-05T10:40:15;8.05;;;4.40;;
70169;SDS011;57543;45.442;9.212;2022-07-05T10:43:21;7.10;;;4.30;;
70169;SDS011;57543;45.442;9.212;2022-07-05T10:46:32;7.03;;;3.83;;
70169;SDS011;57543;45.442;9.212;2022-07-05T10:49:37;7.72;;;4.35;;
70169;SDS011;57543;45.442;9.212;2022-07-05T10:52:41;9.40;;;4.40;;
70169;SDS011;57543;45.442;9.212;2022-07-05T10:59:08;13.43;;;4.35;;
70169;SDS011;57543;45.442;9.212;2022-07-05T11:02:14;8.95;;;4.25;;
70169;SDS011;57543;45.442;9.212;2022-07-05T11:05:18;7.53;;;4.63;;
70169;SDS011;57543;45.442;9.212;2022-07-05T11:08:22;6.33;;;4.00;;
70169;SDS011;57543;45.442;9.212;2022-07-05T11:11:29;8.40;;;4.68;;
70169;SDS011;57543;45.442;9.212;2022-07-05T11:14:36;10.27;;;4.18;;
70169;SDS011;57543;45.442;9.212;2022-07-05T11:17:40;7.70;;;4.65;;
70169;SDS011;57543;45.442;9.212;2022-07-05T11:20:44;9.60;;;4.40;;
70169;SDS011;57543;45.442;9.212;2022-07-05T11:23:48;7.43;;;4.17;;
70169;SDS011;57543;45.442;9.212;2022-07-05T11:26:53;7.55;;;4.10;;
70169;SDS011;57543;45.442;9.212;2022-07-05T11:30:00;9.20;;;4.13;;
70169;SDS011;57543;45.442;9.212;2022-07-05T11:33:25;5.63;;;3.90;;
70169;SDS011;57543;45.442;9.212;2022-07-05T11:36:31;7.03;;;3.97;;
70169;SDS011;57543;45.442;9.212;2022-07-05T11:39:35;7.80;;;3.70;;
70169;SDS011;57543;45.442;9.212;2022-07-05T11:42:46;5.50;;;3.38;;
70169;SDS011;57543;45.442;9.212;2022-07-05T11:45:57;7.07;;;3.33;;
70169;SDS011;57543;45.442;9.212;2022-07-05T11:49:03;6.72;;;3.60;;
70169;SDS011;57543;45.442;9.212;2022-07-05T11:52:06;6.68;;;3.40;;
70169;SDS011;57543;45.442;9.212;2022-07-05T11:55:10;4.93;;;3.03;;
70169;SDS011;57543;45.442;9.212;2022-07-05T11:58:14;6.00;;;3.33;;
70169;SDS011;57543;45.442;9.212;2022-07-05T12:01:18;6.20;;;3.00;;
70169;SDS011;57543;45.442;9.212;2022-07-05T12:04:23;7.55;;;3.30;;
70169;SDS011;57543;45.442;9.212;2022-07-05T12:07:29;5.68;;;3.03;;
70169;SDS011;57543;45.442;9.212;2022-07-05T12:10:37;5.20;;;3.30;;
70169;SDS011;57543;45.442;9.212;2022-07-05T12:13:59;7.72;;;3.20;;
70169;SDS011;57543;45.442;9.212;2022-07-05T12:17:11;4.50;;;3.10;;
70169;SDS011;57543;45.442;9.212;2022-07-05T12:20:23;5.95;;;3.40;;
70169;SDS011;57543;45.442;9.212;2022-07-05T12:23:28;7.38;;;3.35;;
70169;SDS011;57543;45.442;9.212;2022-07-05T12:26:32;6.93;;;3.20;;
70169;SDS011;57543;45.442;9.212;2022-07-05T12:29:36;5.78;;;3.08;;
70169;SDS011;57543;45.442;9.212;2022-07-05T12:36:13;5.68;;;2.83;;
70169;SDS011;57543;45.442;9.212;2022-07-05T12:39:20;4.43;;;2.80;;
70169;SDS011;57543;45.442;9.212;2022-07-05T12:45:39;6.53;;;2.90;;
70169;SDS011;57543;45.442;9.212;2022-07-05T12:48:43;6.20;;;2.88;;
70169;SDS011;57543;45.442;9.212;2022-07-05T12:51:48;6.88;;;3.30;;
70169;SDS011;57543;45.442;9.212;2022-07-05T12:55:11;6.45;;;2.70;;
70169;SDS011;57543;45.442;9.212;2022-07-05T12:58:44;6.93;;;3.00;;
70169;SDS011;57543;45.442;9.212;2022-07-05T13:01:51;4.57;;;2.70;;
70169;SDS011;57543;45.442;9.212;2022-07-05T13:04:55;6.00;;;2.90;;
70169;SDS011;57543;45.442;9.212;2022-07-05T13:07:58;6.20;;;3.08;;
70169;SDS011;57543;45.442;9.212;2022-07-05T13:11:03;5.60;;;3.13;;
70169;SDS011;57543;45.442;9.212;2022-07-05T13:14:06;5.10;;;3.10;;
70169;SDS011;57543;45.442;9.212;2022-07-05T13:17:12;6.15;;;2.90;;
70169;SDS011;57543;45.442;9.212;2022-07-05T13:20:19;7.10;;;2.70;;
70169;SDS011;57543;45.442;9.212;2022-07-05T13:23:25;7.97;;;2.60;;
70169;SDS011;57543;45.442;9.212;2022-07-05T13:26:29;5.03;;;2.70;;
70169;SDS011;57543;45.442;9.212;2022-07-05T13:29:33;5.63;;;2.60;;
70169;SDS011;57543;45.442;9.212;2022-07-05T13:32:37;8.30;;;2.50;;
70169;SDS011;57543;45.442;9.212;2022-07-05T13:35:41;4.50;;;2.47;;
70169;SDS011;57543;45.442;9.212;2022-07-05T13:38:44;5.45;;;2.80;;
70169;SDS011;57543;45.442;9.212;2022-07-05T13:41:52;8.38;;;2.80;;
70169;SDS011;57543;45.442;9.212;2022-07-05T13:44:57;5.60;;;2.73;;
70169;SDS011;57543;45.442;9.212;2022-07-05T13:48:01;5.88;;;2.65;;
70169;SDS011;57543;45.442;9.212;2022-07-05T13:51:06;5.22;;;2.63;;
70169;SDS011;57543;45.442;9.212;2022-07-05T13:54:10;6.18;;;2.50;;
70169;SDS011;57543;45.442;9.212;2022-07-05T13:57:13;6.85;;;2.97;;
70169;SDS011;57543;45.442;9.212;2022-07-05T14:00:17;6.00;;;2.60;;
70169;SDS011;57543;45.442;9.212;2022-07-05T14:03:21;4.70;;;2.38;;
70169;SDS011;57543;45.442;9.212;2022-07-05T14:06:25;4.45;;;2.15;;
70169;SDS011;57543;45.442;9.212;2022-07-05T14:09:29;4.13;;;2.10;;
70169;SDS011;57543;45.442;9.212;2022-07-05T14:12:33;4.85;;;2.50;;
70169;SDS011;57543;45.442;9.212;2022-07-05T14:15:37;6.77;;;2.60;;
70169;SDS011;57543;45.442;9.212;2022-07-05T14:18:41;5.75;;;2.30;;
70169;SDS011;57543;45.442;9.212;2022-07-05T14:21:44;5.53;;;2.63;;
70169;SDS011;57543;45.442;9.212;2022-07-05T14:24:49;4.30;;;2.30;;
70169;SDS011;57543;45.442;9.212;2022-07-05T14:27:53;7.45;;;2.42;;
70169;SDS011;57543;45.442;9.212;2022-07-05T14:30:57;5.17;;;2.50;;
70169;SDS011;57543;45.442;9.212;2022-07-05T14:34:01;6.47;;;2.38;;
70169;SDS011;57543;45.442;9.212;2022-07-05T14:37:05;4.85;;;2.10;;
70169;SDS011;57543;45.442;9.212;2022-07-05T14:40:09;3.78;;;2.10;;
70169;SDS011;57543;45.442;9.212;2022-07-05T14:43:13;3.95;;;2.17;;
70169;SDS011;57543;45.442;9.212;2022-07-05T14:49:40;5.43;;;2.40;;
70169;SDS011;57543;45.442;9.212;2022-07-05T14:52:45;5.80;;;2.20;;
70169;SDS011;57543;45.442;9.212;2022-07-05T14:55:50;7.35;;;2.40;;
70169;SDS011;57543;45.442;9.212;2022-07-05T14:58:54;6.13;;;2.03;;
70169;SDS011;57543;45.442;9.212;2022-07-05T15:01:58;4.63;;;2.20;;
70169;SDS011;57543;45.442;9.212;2022-07-05T15:05:02;7.00;;;2.30;;
70169;SDS011;57543;45.442;9.212;2022-07-05T15:08:07;5.70;;;2.40;;
70169;SDS011;57543;45.442;9.212;2022-07-05T15:11:11;4.25;;;2.15;;
70169;SDS011;57543;45.442;9.212;2022-07-05T15:14:14;4.63;;;2.33;;
70169;SDS011;57543;45.442;9.212;2022-07-05T15:17:18;3.63;;;2.00;;
70169;SDS011;57543;45.442;9.212;2022-07-05T15:20:23;6.18;;;2.20;;
70169;SDS011;57543;45.442;9.212;2022-07-05T15:23:26;5.72;;;2.00;;
70169;SDS011;57543;45.442;9.212;2022-07-05T15:26:32;4.15;;;2.05;;
70169;SDS011;57543;45.442;9.212;2022-07-05T15:29:36;3.72;;;1.90;;
70169;SDS011;57543;45.442;9.212;2022-07-05T15:32:40;5.15;;;2.13;;
70169;SDS011;57543;45.442;9.212;2022-07-05T15:35:45;4.95;;;2.22;;
70169;SDS011;57543;45.442;9.212;2022-07-05T15:38:49;5.85;;;2.00;;
70169;SDS011;57543;45.442;9.212;2022-07-05T15:41:52;4.55;;;2.20;;
70169;SDS011;57543;45.442;9.212;2022-07-05T15:44:56;4.65;;;2.15;;
70169;SDS011;57543;45.442;9.212;2022-07-05T15:48:00;4.43;;;2.13;;
70169;SDS011;57543;45.442;9.212;2022-07-05T15:51:04;7.15;;;2.10;;
70169;SDS011;57543;45.442;9.212;2022-07-05T15:54:08;4.60;;;2.30;;
70169;SDS011;57543;45.442;9.212;2022-07-05T15:57:12;4.63;;;1.92;;
70169;SDS011;57543;45.442;9.212;2022-07-05T16:00:16;5.07;;;2.30;;
70169;SDS011;57543;45.442;9.212;2022-07-05T16:03:20;5.57;;;2.33;;
70169;SDS011;57543;45.442;9.212;2022-07-05T16:06:24;3.78;;;2.28;;
70169;SDS011;57543;45.442;9.212;2022-07-05T16:09:28;4.63;;;2.22;;
70169;SDS011;57543;45.442;9.212;2022-07-05T16:12:32;5.63;;;2.10;;
70169;SDS011;57543;45.442;9.212;2022-07-05T16:15:35;4.50;;;2.40;;
70169;SDS011;57543;45.442;9.212;2022-07-05T16:18:58;5.43;;;2.50;;
70169;SDS011;57543;45.442;9.212;2022-07-05T16:22:02;4.82;;;2.30;;
70169;SDS011;57543;45.442;9.212;2022-07-05T16:25:06;5.88;;;2.47;;
70169;SDS011;57543;45.442;9.212;2022-07-05T16:28:10;4.32;;;2.30;;
70169;SDS011;57543;45.442;9.212;2022-07-05T16:31:14;5.53;;;2.72;;
70169;SDS011;57543;45.442;9.212;2022-07-05T16:34:18;5.97;;;2.60;;
70169;SDS011;57543;45.442;9.212;2022-07-05T16:37:22;5.43;;;2.50;;
70169;SDS011;57543;45.442;9.212;2022-07-05T16:40:26;6.25;;;2.30;;
70169;SDS011;57543;45.442;9.212;2022-07-05T16:43:30;5.30;;;2.40;;
70169;SDS011;57543;45.442;9.212;2022-07-05T16:46:35;4.70;;;2.53;;
70169;SDS011;57543;45.442;9.212;2022-07-05T16:49:39;4.53;;;2.37;;
70169;SDS011;57543;45.442;9.212;2022-07-05T16:52:43;3.70;;;2.17;;
70169;SDS011;57543;45.442;9.212;2022-07-05T16:55:47;4.30;;;2.40;;
70169;SDS011;57543;45.442;9.212;2022-07-05T16:58:51;4.72;;;2.05;;
70169;SDS011;57543;45.442;9.212;2022-07-05T17:01:57;6.13;;;2.00;;
70169;SDS011;57543;45.442;9.212;2022-07-05T17:05:00;4.45;;;2.10;;
70169;SDS011;57543;45.442;9.212;2022-07-05T17:08:05;7.95;;;2.40;;
70169;SDS011;57543;45.442;9.212;2022-07-05T17:11:12;3.97;;;2.00;;
70169;SDS011;57543;45.442;9.212;2022-07-05T17:14:17;5.13;;;2.22;;
70169;SDS011;57543;45.442;9.212;2022-07-05T17:17:21;3.90;;;2.00;;
70169;SDS011;57543;45.442;9.212;2022-07-05T17:20:25;5.63;;;2.10;;
70169;SDS011;57543;45.442;9.212;2022-07-05T17:23:29;4.75;;;2.10;;
70169;SDS011;57543;45.442;9.212;2022-07-05T17:26:33;3.60;;;2.05;;
70169;SDS011;57543;45.442;9.212;2022-07-05T17:29:36;4.97;;;1.90;;
70169;SDS011;57543;45.442;9.212;2022-07-05T17:32:40;6.47;;;2.13;;
70169;SDS011;57543;45.442;9.212;2022-07-05T17:35:44;4.35;;;2.03;;
70169;SDS011;57543;45.442;9.212;2022-07-05T17:38:48;5.63;;;2.30;;
70169;SDS011;57543;45.442;9.212;2022-07-05T17:41:53;5.35;;;1.90;;
70169;SDS011;57543;45.442;9.212;2022-07-05T17:44:57;3.50;;;1.90;;
70169;SDS011;57543;45.442;9.212;2022-07-05T17:48:01;4.63;;;2.00;;
70169;SDS011;57543;45.442;9.212;2022-07-05T17:51:05;3.88;;;1.88;;
70169;SDS011;57543;45.442;9.212;2022-07-05T17:54:08;3.60;;;1.70;;
70169;SDS011;57543;45.442;9.212;2022-07-05T17:57:13;5.35;;;1.90;;
70169;SDS011;57543;45.442;9.212;2022-07-05T18:00:16;5.60;;;2.13;;
70169;SDS011;57543;45.442;9.212;2022-07-05T18:03:20;5.25;;;2.10;;
70169;SDS011;57543;45.442;9.212;2022-07-05T18:06:24;4.45;;;1.90;;
70169;SDS011;57543;45.442;9.212;2022-07-05T18:09:28;4.50;;;2.00;;
70169;SDS011;57543;45.442;9.212;2022-07-05T18:12:32;5.35;;;2.17;;
70169;SDS011;57543;45.442;9.212;2022-07-05T18:15:36;6.90;;;2.42;;
70169;SDS011;57543;45.442;9.212;2022-07-05T18:18:41;5.35;;;2.00;;
70169;SDS011;57543;45.442;9.212;2022-07-05T18:21:45;5.55;;;2.17;;
70169;SDS011;57543;45.442;9.212;2022-07-05T18:24:49;5.65;;;1.83;;
70169;SDS011;57543;45.442;9.212;2022-07-05T18:27:53;4.88;;;2.20;;
70169;SDS011;57543;45.442;9.212;2022-07-05T18:30:57;5.90;;;2.13;;
70169;SDS011;57543;45.442;9.212;2022-07-05T18:34:00;4.28;;;2.10;;
70169;SDS011;57543;45.442;9.212;2022-07-05T18:37:04;3.25;;;1.90;;
70169;SDS011;57543;45.442;9.212;2022-07-05T18:40:10;3.92;;;2.10;;
70169;SDS011;57543;45.442;9.212;2022-07-05T18:43:15;5.28;;;2.20;;
70169;SDS011;57543;45.442;9.212;2022-07-05T18:46:18;7.25;;;2.15;;
70169;SDS011;57543;45.442;9.212;2022-07-05T18:49:22;3.92;;;1.80;;